Kezdőlap
METAR-TAF:

METAR-TAF

Repülőterek :

Wattay nemzetközi repülőtér

Vientián, Laosz

földrajzi szélesség: 17-57N, földrajzi hosszúság: 102-34E, magasság: 171 m

Jelenlegi meteorológiai megfigyelések

A jelentés 32 perccel ezelõtt készült, 11:30 UTC
Szélcsend
Hőmérséklet 33°C
Páratartalom 71%
Légköri nyomás 1002 hPa
Látótávolság: 8000 m
Szórványos felhőzet 20000 lábon

METAR: VLVT 201130Z 00000KT 8000 SCT200 33/27 Q1002 NOSIG

Idő: 19:02 (12:02 UTC)

Előrejelzés

A jelentés 1 órával és 2 perccel ezelõtt készült, 11:00 UTC
Az előrejelzés 20-én 12 óra UTC és 21-én 12 óra UTC között érvényes
Északnyugati szél 4 kt
Látótávolság: 6000 m
Kevés felhő 2000 lábon
Szórványos felhőzet 20000 lábon

TAF: VLVT 201100Z 2012/2112 32004KT 6000 FEW020 SCT200

Meteorológiai megfigyelések és előrejelzések több, mint 4000 repülőtéren (METAR és TAF jelentéseket).

A térképen piros és sárga pontok jelzik az elérhető meteorológiai állomásokat.

Mozgassa az egeret a pont fölött, hogy megjelenjen az állomás neve.

Azután kattintson az időjárási megfigyelések és előrejelzések megtekintéséhez.

A térkép megváltoztatása: kattintson a fekete keresztel jelölt zöld gombra ráközelítéshez, a vonallal jelölt zöld gombra távolításhoz, vagy a zöld nyilakra a szomszédos térképek eléréséhez.


METAR-TAF: